sensor_id;sensor_type;location;lat;lon;timestamp;pressure;altitude;pressure_sealevel;temperature;humidity
51031;BME280;37058;41.442;23.240;2022-07-06T00:01:06;100304.81;;;23.00;84.53
51031;BME280;37058;41.442;23.240;2022-07-06T00:03:32;100298.25;;;22.96;84.39
51031;BME280;37058;41.442;23.240;2022-07-06T00:05:58;100296.16;;;22.92;84.38
51031;BME280;37058;41.442;23.240;2022-07-06T00:08:24;100289.47;;;22.85;84.81
51031;BME280;37058;41.442;23.240;2022-07-06T00:10:50;100290.44;;;22.89;84.99
51031;BME280;37058;41.442;23.240;2022-07-06T00:13:16;100290.91;;;22.91;85.22
51031;BME280;37058;41.442;23.240;2022-07-06T00:15:42;100291.59;;;22.88;84.18
51031;BME280;37058;41.442;23.240;2022-07-06T00:18:08;100295.53;;;22.87;84.14
51031;BME280;37058;41.442;23.240;2022-07-06T00:20:34;100274.78;;;22.76;84.99
51031;BME280;37058;41.442;23.240;2022-07-06T00:22:59;100272.22;;;22.70;85.41
51031;BME280;37058;41.442;23.240;2022-07-06T00:25:25;100269.16;;;22.63;86.00
51031;BME280;37058;41.442;23.240;2022-07-06T00:27:51;100263.16;;;22.53;87.37
51031;BME280;37058;41.442;23.240;2022-07-06T00:30:17;100263.56;;;22.42;87.00
51031;BME280;37058;41.442;23.240;2022-07-06T00:32:43;100263.75;;;22.37;87.94
51031;BME280;37058;41.442;23.240;2022-07-06T00:35:09;100256.88;;;22.35;89.57
51031;BME280;37058;41.442;23.240;2022-07-06T00:37:35;100253.63;;;22.33;88.49
51031;BME280;37058;41.442;23.240;2022-07-06T00:40:01;100237.59;;;22.29;87.06
51031;BME280;37058;41.442;23.240;2022-07-06T00:42:27;100245.13;;;22.29;87.12
51031;BME280;37058;41.442;23.240;2022-07-06T00:44:52;100242.19;;;22.25;88.82
51031;BME280;37058;41.442;23.240;2022-07-06T00:47:18;100235.16;;;22.28;89.41
51031;BME280;37058;41.442;23.240;2022-07-06T00:49:44;100237.28;;;22.31;89.73
51031;BME280;37058;41.442;23.240;2022-07-06T00:52:29;100234.34;;;22.27;89.08
51031;BME280;37058;41.442;23.240;2022-07-06T00:54:54;100216.72;;;22.23;88.15
51031;BME280;37058;41.442;23.240;2022-07-06T00:57:20;100222.75;;;22.17;88.55
51031;BME280;37058;41.442;23.240;2022-07-06T00:59:46;100217.06;;;22.13;90.60
51031;BME280;37058;41.442;23.240;2022-07-06T01:02:12;100215.56;;;22.16;90.70
51031;BME280;37058;41.442;23.240;2022-07-06T01:04:38;100210.00;;;22.16;89.62
51031;BME280;37058;41.442;23.240;2022-07-06T01:07:04;100206.38;;;22.15;89.50
51031;BME280;37058;41.442;23.240;2022-07-06T01:09:30;100205.94;;;22.13;89.89
51031;BME280;37058;41.442;23.240;2022-07-06T01:11:56;100198.59;;;22.08;89.66
51031;BME280;37058;41.442;23.240;2022-07-06T01:14:22;100196.50;;;22.05;89.34
51031;BME280;37058;41.442;23.240;2022-07-06T01:16:49;100196.00;;;22.03;89.44
51031;BME280;37058;41.442;23.240;2022-07-06T01:19:15;100192.06;;;22.04;90.74
51031;BME280;37058;41.442;23.240;2022-07-06T01:21:41;100195.31;;;22.06;90.02
51031;BME280;37058;41.442;23.240;2022-07-06T01:24:07;100204.34;;;22.03;90.16
51031;BME280;37058;41.442;23.240;2022-07-06T01:26:32;100202.56;;;21.99;90.26
51031;BME280;37058;41.442;23.240;2022-07-06T01:28:58;100195.91;;;21.91;90.31
51031;BME280;37058;41.442;23.240;2022-07-06T01:31:26;100193.94;;;21.92;90.38
51031;BME280;37058;41.442;23.240;2022-07-06T01:33:54;100199.81;;;21.90;90.34
51031;BME280;37058;41.442;23.240;2022-07-06T01:36:21;100205.22;;;21.86;90.35
51031;BME280;37058;41.442;23.240;2022-07-06T01:38:53;100216.06;;;21.79;92.53
51031;BME280;37058;41.442;23.240;2022-07-06T01:41:20;100207.38;;;21.81;93.19
51031;BME280;37058;41.442;23.240;2022-07-06T01:43:46;100208.19;;;21.81;92.03
51031;BME280;37058;41.442;23.240;2022-07-06T01:46:13;100215.25;;;21.79;92.21
51031;BME280;37058;41.442;23.240;2022-07-06T01:48:39;100216.91;;;21.71;92.71
51031;BME280;37058;41.442;23.240;2022-07-06T01:51:05;100224.09;;;21.72;91.90
51031;BME280;37058;41.442;23.240;2022-07-06T01:53:31;100230.00;;;21.71;91.00
51031;BME280;37058;41.442;23.240;2022-07-06T01:55:57;100236.06;;;21.64;91.00
51031;BME280;37058;41.442;23.240;2022-07-06T01:58:23;100236.06;;;21.64;91.23
51031;BME280;37058;41.442;23.240;2022-07-06T02:00:49;100237.22;;;21.63;91.55
51031;BME280;37058;41.442;23.240;2022-07-06T02:03:15;100240.47;;;21.65;91.88
51031;BME280;37058;41.442;23.240;2022-07-06T02:05:41;100237.84;;;21.69;92.05
51031;BME280;37058;41.442;23.240;2022-07-06T02:08:07;100232.91;;;21.74;91.38
51031;BME280;37058;41.442;23.240;2022-07-06T02:10:33;100240.25;;;21.79;90.38
51031;BME280;37058;41.442;23.240;2022-07-06T02:12:59;100237.97;;;21.81;90.35
51031;BME280;37058;41.442;23.240;2022-07-06T02:15:25;100235.00;;;21.86;90.00
51031;BME280;37058;41.442;23.240;2022-07-06T02:17:51;100234.19;;;21.85;89.53
51031;BME280;37058;41.442;23.240;2022-07-06T02:20:16;100234.38;;;21.80;89.24
51031;BME280;37058;41.442;23.240;2022-07-06T02:22:42;100233.09;;;21.69;89.36
51031;BME280;37058;41.442;23.240;2022-07-06T02:25:08;100240.00;;;21.63;89.19
51031;BME280;37058;41.442;23.240;2022-07-06T02:27:34;100239.00;;;21.59;89.29
51031;BME280;37058;41.442;23.240;2022-07-06T02:30:00;100245.38;;;21.59;89.82
51031;BME280;37058;41.442;23.240;2022-07-06T02:32:26;100246.22;;;21.60;89.51
51031;BME280;37058;41.442;23.240;2022-07-06T02:34:52;100241.13;;;21.62;89.09
51031;BME280;37058;41.442;23.240;2022-07-06T02:37:18;100237.88;;;21.60;88.61
51031;BME280;37058;41.442;23.240;2022-07-06T02:39:44;100240.84;;;21.55;88.77
51031;BME280;37058;41.442;23.240;2022-07-06T02:42:10;100235.72;;;21.57;89.84
51031;BME280;37058;41.442;23.240;2022-07-06T02:44:36;100234.78;;;21.53;90.11
51031;BME280;37058;41.442;23.240;2022-07-06T02:47:03;100245.91;;;21.53;88.69
51031;BME280;37058;41.442;23.240;2022-07-06T02:49:29;100247.53;;;21.54;87.94
51031;BME280;37058;41.442;23.240;2022-07-06T02:51:54;100252.13;;;21.50;87.62
51031;BME280;37058;41.442;23.240;2022-07-06T02:54:20;100243.78;;;21.50;88.42
51031;BME280;37058;41.442;23.240;2022-07-06T02:56:46;100243.94;;;21.53;88.50
51031;BME280;37058;41.442;23.240;2022-07-06T02:59:18;100248.00;;;21.56;87.71
51031;BME280;37058;41.442;23.240;2022-07-06T03:01:43;100254.19;;;21.61;87.05
51031;BME280;37058;41.442;23.240;2022-07-06T03:04:09;100249.94;;;21.64;87.24
51031;BME280;37058;41.442;23.240;2022-07-06T03:06:35;100251.91;;;21.63;86.58
51031;BME280;37058;41.442;23.240;2022-07-06T03:09:02;100254.38;;;21.65;86.11
51031;BME280;37058;41.442;23.240;2022-07-06T03:11:28;100250.13;;;21.68;86.57
51031;BME280;37058;41.442;23.240;2022-07-06T03:13:54;100251.41;;;21.70;86.25
51031;BME280;37058;41.442;23.240;2022-07-06T03:16:19;100249.63;;;21.66;86.14
51031;BME280;37058;41.442;23.240;2022-07-06T03:18:45;100257.16;;;21.65;85.37
51031;BME280;37058;41.442;23.240;2022-07-06T03:21:11;100255.00;;;21.62;86.05
51031;BME280;37058;41.442;23.240;2022-07-06T03:23:37;100256.47;;;21.68;86.31
51031;BME280;37058;41.442;23.240;2022-07-06T03:26:03;100260.56;;;21.62;86.80
51031;BME280;37058;41.442;23.240;2022-07-06T03:28:29;100267.78;;;21.54;87.86
51031;BME280;37058;41.442;23.240;2022-07-06T03:30:55;100252.75;;;21.47;89.34
51031;BME280;37058;41.442;23.240;2022-07-06T03:33:20;100260.63;;;21.45;88.09
51031;BME280;37058;41.442;23.240;2022-07-06T03:35:46;100263.06;;;21.37;89.27
51031;BME280;37058;41.442;23.240;2022-07-06T03:38:12;100261.41;;;21.36;89.82
51031;BME280;37058;41.442;23.240;2022-07-06T03:40:38;100259.97;;;21.39;89.07
51031;BME280;37058;41.442;23.240;2022-07-06T03:43:04;100262.75;;;21.39;89.84
51031;BME280;37058;41.442;23.240;2022-07-06T03:45:30;100266.34;;;21.39;90.34
51031;BME280;37058;41.442;23.240;2022-07-06T03:47:56;100262.91;;;21.42;90.28
51031;BME280;37058;41.442;23.240;2022-07-06T03:50:22;100256.53;;;21.51;89.57
51031;BME280;37058;41.442;23.240;2022-07-06T03:52:48;100258.97;;;21.52;89.29
51031;BME280;37058;41.442;23.240;2022-07-06T03:55:14;100270.09;;;21.52;89.21
51031;BME280;37058;41.442;23.240;2022-07-06T03:57:40;100266.47;;;21.52;90.22
51031;BME280;37058;41.442;23.240;2022-07-06T04:00:08;100267.94;;;21.58;89.93
51031;BME280;37058;41.442;23.240;2022-07-06T04:02:34;100273.47;;;21.67;88.72
51031;BME280;37058;41.442;23.240;2022-07-06T04:05:00;100277.72;;;21.73;85.86
51031;BME280;37058;41.442;23.240;2022-07-06T04:07:26;100278.66;;;21.85;86.43
51031;BME280;37058;41.442;23.240;2022-07-06T04:09:52;100279.31;;;21.91;86.31
51031;BME280;37058;41.442;23.240;2022-07-06T04:12:18;100270.91;;;22.00;85.80
51031;BME280;37058;41.442;23.240;2022-07-06T04:14:44;100277.59;;;22.07;84.61
51031;BME280;37058;41.442;23.240;2022-07-06T04:17:10;100277.56;;;22.16;83.94
51031;BME280;37058;41.442;23.240;2022-07-06T04:19:54;100276.41;;;22.26;83.57
51031;BME280;37058;41.442;23.240;2022-07-06T04:22:20;100281.59;;;22.36;82.74
51031;BME280;37058;41.442;23.240;2022-07-06T04:24:46;100282.03;;;22.47;82.20
51031;BME280;37058;41.442;23.240;2022-07-06T04:27:12;100287.34;;;22.61;81.54
51031;BME280;37058;41.442;23.240;2022-07-06T04:29:37;100284.63;;;22.73;80.32
51031;BME280;37058;41.442;23.240;2022-07-06T04:32:04;100286.28;;;22.95;78.75
51031;BME280;37058;41.442;23.240;2022-07-06T04:34:30;100284.31;;;23.04;78.31
51031;BME280;37058;41.442;23.240;2022-07-06T04:36:56;100293.38;;;23.13;78.50
51031;BME280;37058;41.442;23.240;2022-07-06T04:39:22;100294.34;;;23.18;76.50
51031;BME280;37058;41.442;23.240;2022-07-06T04:41:47;100286.47;;;23.20;77.58
51031;BME280;37058;41.442;23.240;2022-07-06T04:44:13;100285.22;;;23.29;77.66
51031;BME280;37058;41.442;23.240;2022-07-06T04:46:39;100289.63;;;23.30;77.53
51031;BME280;37058;41.442;23.240;2022-07-06T04:49:05;100291.19;;;23.40;77.84
51031;BME280;37058;41.442;23.240;2022-07-06T04:51:32;100295.16;;;23.51;78.39
51031;BME280;37058;41.442;23.240;2022-07-06T04:53:58;100293.94;;;23.61;77.68
51031;BME280;37058;41.442;23.240;2022-07-06T04:56:24;100295.00;;;23.69;78.52
51031;BME280;37058;41.442;23.240;2022-07-06T04:58:50;100300.50;;;23.77;77.79
51031;BME280;37058;41.442;23.240;2022-07-06T05:01:16;100296.03;;;23.85;75.69
51031;BME280;37058;41.442;23.240;2022-07-06T05:03:42;100295.78;;;23.90;76.67
51031;BME280;37058;41.442;23.240;2022-07-06T05:06:08;100296.72;;;23.94;78.03
51031;BME280;37058;41.442;23.240;2022-07-06T05:08:34;100302.78;;;23.96;76.62
51031;BME280;37058;41.442;23.240;2022-07-06T05:11:00;100293.59;;;23.96;76.89
51031;BME280;37058;41.442;23.240;2022-07-06T05:13:26;100296.84;;;23.98;75.76
51031;BME280;37058;41.442;23.240;2022-07-06T05:15:52;100299.06;;;24.05;75.30
51031;BME280;37058;41.442;23.240;2022-07-06T05:18:18;100292.00;;;24.69;72.67
51031;BME280;37058;41.442;23.240;2022-07-06T05:20:44;100298.41;;;24.57;72.30
51031;BME280;37058;41.442;23.240;2022-07-06T05:23:10;100307.50;;;24.54;73.06
51031;BME280;37058;41.442;23.240;2022-07-06T05:25:36;100307.03;;;24.52;73.18
51031;BME280;37058;41.442;23.240;2022-07-06T05:28:03;100305.84;;;24.53;73.26
51031;BME280;37058;41.442;23.240;2022-07-06T05:30:29;100316.31;;;24.56;73.55
51031;BME280;37058;41.442;23.240;2022-07-06T05:32:55;100308.66;;;24.65;73.68
51031;BME280;37058;41.442;23.240;2022-07-06T05:35:21;100307.22;;;24.71;73.94
51031;BME280;37058;41.442;23.240;2022-07-06T05:37:47;100304.00;;;24.81;73.29
51031;BME280;37058;41.442;23.240;2022-07-06T05:40:13;100305.81;;;24.90;72.01
51031;BME280;37058;41.442;23.240;2022-07-06T05:42:39;100311.16;;;24.95;72.58
51031;BME280;37058;41.442;23.240;2022-07-06T05:45:06;100309.75;;;25.01;72.23
51031;BME280;37058;41.442;23.240;2022-07-06T05:47:32;100307.63;;;25.10;72.04
51031;BME280;37058;41.442;23.240;2022-07-06T05:50:17;100306.00;;;25.21;71.09
51031;BME280;37058;41.442;23.240;2022-07-06T05:52:54;100298.28;;;25.30;71.11
51031;BME280;37058;41.442;23.240;2022-07-06T05:55:20;100300.34;;;25.62;70.73
51031;BME280;37058;41.442;23.240;2022-07-06T05:57:46;100297.72;;;26.45;67.40
51031;BME280;37058;41.442;23.240;2022-07-06T06:00:12;100294.69;;;26.85;64.35
51031;BME280;37058;41.442;23.240;2022-07-06T06:02:40;100293.22;;;26.91;63.38
51031;BME280;37058;41.442;23.240;2022-07-06T06:05:08;100288.22;;;27.00;63.42
51031;BME280;37058;41.442;23.240;2022-07-06T06:07:36;100286.69;;;27.03;63.68
51031;BME280;37058;41.442;23.240;2022-07-06T06:10:08;100292.94;;;26.96;62.24
51031;BME280;37058;41.442;23.240;2022-07-06T06:12:35;100287.63;;;26.91;61.97
51031;BME280;37058;41.442;23.240;2022-07-06T06:15:01;100280.25;;;26.83;61.60
51031;BME280;37058;41.442;23.240;2022-07-06T06:17:27;100284.41;;;26.73;62.10
51031;BME280;37058;41.442;23.240;2022-07-06T06:19:53;100284.63;;;26.65;61.06
51031;BME280;37058;41.442;23.240;2022-07-06T06:22:19;100282.56;;;26.62;60.68
51031;BME280;37058;41.442;23.240;2022-07-06T06:24:45;100277.16;;;26.53;61.39
51031;BME280;37058;41.442;23.240;2022-07-06T06:27:11;100270.63;;;26.49;62.45
51031;BME280;37058;41.442;23.240;2022-07-06T06:29:38;100274.16;;;26.46;61.61
51031;BME280;37058;41.442;23.240;2022-07-06T06:32:04;100270.91;;;26.44;61.75
51031;BME280;37058;41.442;23.240;2022-07-06T06:34:33;100268.47;;;26.42;60.98
51031;BME280;37058;41.442;23.240;2022-07-06T06:36:59;100262.88;;;26.42;62.09
51031;BME280;37058;41.442;23.240;2022-07-06T06:39:26;100263.31;;;26.44;62.74
51031;BME280;37058;41.442;23.240;2022-07-06T06:41:52;100265.66;;;26.42;61.48
51031;BME280;37058;41.442;23.240;2022-07-06T06:44:18;100264.47;;;26.43;61.35
51031;BME280;37058;41.442;23.240;2022-07-06T06:46:44;100266.59;;;26.46;61.75
51031;BME280;37058;41.442;23.240;2022-07-06T06:49:10;100268.75;;;26.53;61.96
51031;BME280;37058;41.442;23.240;2022-07-06T06:51:36;100260.88;;;26.58;60.50
51031;BME280;37058;41.442;23.240;2022-07-06T06:54:05;100258.63;;;26.64;61.56
51031;BME280;37058;41.442;23.240;2022-07-06T06:56:31;100256.00;;;26.71;62.28
51031;BME280;37058;41.442;23.240;2022-07-06T06:58:57;100249.88;;;26.85;62.23
51031;BME280;37058;41.442;23.240;2022-07-06T07:01:23;100255.63;;;26.92;60.03
51031;BME280;37058;41.442;23.240;2022-07-06T07:03:51;100240.88;;;26.95;60.14
51031;BME280;37058;41.442;23.240;2022-07-06T07:06:17;100249.34;;;26.99;59.84
51031;BME280;37058;41.442;23.240;2022-07-06T07:08:43;100240.28;;;27.06;60.37
51031;BME280;37058;41.442;23.240;2022-07-06T07:11:09;100240.44;;;27.13;60.56
51031;BME280;37058;41.442;23.240;2022-07-06T07:13:35;100238.63;;;27.20;61.02
51031;BME280;37058;41.442;23.240;2022-07-06T07:16:01;100231.16;;;27.28;59.91
51031;BME280;37058;41.442;23.240;2022-07-06T07:18:27;100231.31;;;27.35;57.52
51031;BME280;37058;41.442;23.240;2022-07-06T07:20:52;100218.28;;;27.47;58.64
51031;BME280;37058;41.442;23.240;2022-07-06T07:23:18;100213.72;;;27.58;58.30
51031;BME280;37058;41.442;23.240;2022-07-06T07:25:44;100217.16;;;27.71;57.24
51031;BME280;37058;41.442;23.240;2022-07-06T07:28:10;100212.03;;;27.76;56.56
51031;BME280;37058;41.442;23.240;2022-07-06T07:30:36;100211.44;;;27.86;57.46
51031;BME280;37058;41.442;23.240;2022-07-06T07:33:02;100202.69;;;27.92;57.40
51031;BME280;37058;41.442;23.240;2022-07-06T07:35:28;100197.25;;;28.02;58.54
51031;BME280;37058;41.442;23.240;2022-07-06T07:37:54;100206.22;;;28.12;57.49
51031;BME280;37058;41.442;23.240;2022-07-06T07:40:20;100197.13;;;28.18;56.57
51031;BME280;37058;41.442;23.240;2022-07-06T07:42:47;100202.81;;;28.25;55.63
51031;BME280;37058;41.442;23.240;2022-07-06T07:45:13;100200.44;;;28.27;54.68
51031;BME280;37058;41.442;23.240;2022-07-06T07:47:39;100206.16;;;28.35;56.40
51031;BME280;37058;41.442;23.240;2022-07-06T07:50:06;100207.44;;;28.41;55.43
51031;BME280;37058;41.442;23.240;2022-07-06T07:52:32;100210.03;;;28.49;55.05
51031;BME280;37058;41.442;23.240;2022-07-06T07:54:58;100200.88;;;28.56;54.11
51031;BME280;37058;41.442;23.240;2022-07-06T07:57:24;100202.22;;;28.66;54.70
51031;BME280;37058;41.442;23.240;2022-07-06T07:59:50;100207.56;;;28.74;53.64
51031;BME280;37058;41.442;23.240;2022-07-06T08:02:16;100202.88;;;28.86;54.45
51031;BME280;37058;41.442;23.240;2022-07-06T08:04:42;100206.59;;;28.93;53.43
51031;BME280;37058;41.442;23.240;2022-07-06T08:07:08;100204.69;;;29.01;52.43
51031;BME280;37058;41.442;23.240;2022-07-06T08:09:34;100204.38;;;29.06;52.80
51031;BME280;37058;41.442;23.240;2022-07-06T08:12:00;100200.03;;;29.12;54.05
51031;BME280;37058;41.442;23.240;2022-07-06T08:14:26;100195.69;;;29.19;53.97
51031;BME280;37058;41.442;23.240;2022-07-06T08:16:52;100197.38;;;29.27;54.36
51031;BME280;37058;41.442;23.240;2022-07-06T08:19:18;100199.47;;;29.37;54.69
51031;BME280;37058;41.442;23.240;2022-07-06T08:21:44;100198.38;;;29.45;54.67
51031;BME280;37058;41.442;23.240;2022-07-06T08:24:11;100196.41;;;29.49;52.73
51031;BME280;37058;41.442;23.240;2022-07-06T08:26:37;100202.09;;;29.56;53.71
51031;BME280;37058;41.442;23.240;2022-07-06T08:29:04;100199.34;;;29.64;52.68
51031;BME280;37058;41.442;23.240;2022-07-06T08:31:30;100201.84;;;29.69;52.22
51031;BME280;37058;41.442;23.240;2022-07-06T08:33:56;100203.09;;;29.75;53.08
51031;BME280;37058;41.442;23.240;2022-07-06T08:36:22;100201.16;;;29.83;52.76
51031;BME280;37058;41.442;23.240;2022-07-06T08:38:49;100202.03;;;29.90;51.73
51031;BME280;37058;41.442;23.240;2022-07-06T08:41:18;100198.09;;;29.98;50.73
51031;BME280;37058;41.442;23.240;2022-07-06T08:43:47;100199.75;;;30.03;50.12
51031;BME280;37058;41.442;23.240;2022-07-06T08:46:13;100199.34;;;30.05;48.76
51031;BME280;37058;41.442;23.240;2022-07-06T08:48:41;100197.38;;;30.09;48.06
51031;BME280;37058;41.442;23.240;2022-07-06T08:51:07;100190.56;;;30.13;48.76
51031;BME280;37058;41.442;23.240;2022-07-06T08:53:34;100190.19;;;30.18;47.44
51031;BME280;37058;41.442;23.240;2022-07-06T08:56:01;100186.63;;;30.25;49.18
51031;BME280;37058;41.442;23.240;2022-07-06T08:58:28;100189.06;;;30.30;47.88
51031;BME280;37058;41.442;23.240;2022-07-06T09:00:57;100186.31;;;30.34;47.88
51031;BME280;37058;41.442;23.240;2022-07-06T09:03:24;100194.75;;;30.37;49.05
51031;BME280;37058;41.442;23.240;2022-07-06T09:05:50;100184.72;;;30.36;46.65
51031;BME280;37058;41.442;23.240;2022-07-06T09:08:18;100179.81;;;30.26;46.49
51031;BME280;37058;41.442;23.240;2022-07-06T09:10:45;100180.63;;;30.30;47.16
51031;BME280;37058;41.442;23.240;2022-07-06T09:13:11;100185.50;;;30.37;50.13
51031;BME280;37058;41.442;23.240;2022-07-06T09:15:37;100177.50;;;30.42;47.63
51031;BME280;37058;41.442;23.240;2022-07-06T09:18:07;100182.75;;;30.44;48.11
51031;BME280;37058;41.442;23.240;2022-07-06T09:20:33;100178.31;;;30.47;48.73
51031;BME280;37058;41.442;23.240;2022-07-06T09:23:05;100170.69;;;30.51;49.91
51031;BME280;37058;41.442;23.240;2022-07-06T09:25:33;100177.53;;;30.53;48.24
51031;BME280;37058;41.442;23.240;2022-07-06T09:28:00;100173.16;;;30.59;49.10
51031;BME280;37058;41.442;23.240;2022-07-06T09:30:28;100175.19;;;30.66;48.78
51031;BME280;37058;41.442;23.240;2022-07-06T09:32:57;100169.56;;;30.66;47.78
51031;BME280;37058;41.442;23.240;2022-07-06T09:35:35;100168.78;;;30.69;47.36
51031;BME280;37058;41.442;23.240;2022-07-06T09:38:12;100168.78;;;30.73;46.07
51031;BME280;37058;41.442;23.240;2022-07-06T09:40:43;100164.38;;;30.75;45.87
51031;BME280;37058;41.442;23.240;2022-07-06T09:43:14;100161.16;;;30.80;47.66
51031;BME280;37058;41.442;23.240;2022-07-06T09:45:43;100153.97;;;30.86;48.29
51031;BME280;37058;41.442;23.240;2022-07-06T09:48:19;100154.41;;;30.92;47.05
51031;BME280;37058;41.442;23.240;2022-07-06T09:50:51;100154.41;;;30.96;47.52
51031;BME280;37058;41.442;23.240;2022-07-06T09:53:23;100157.63;;;30.98;44.72
51031;BME280;37058;41.442;23.240;2022-07-06T09:55:55;100150.38;;;30.90;43.33
51031;BME280;37058;41.442;23.240;2022-07-06T09:58:22;100149.53;;;30.85;45.41
51031;BME280;37058;41.442;23.240;2022-07-06T10:00:49;100145.06;;;30.81;45.17
51031;BME280;37058;41.442;23.240;2022-07-06T10:03:17;100145.50;;;30.83;46.68
51031;BME280;37058;41.442;23.240;2022-07-06T10:05:47;100131.03;;;30.84;46.68
51031;BME280;37058;41.442;23.240;2022-07-06T10:08:16;100120.53;;;30.88;45.60
51031;BME280;37058;41.442;23.240;2022-07-06T10:10:43;100126.22;;;30.92;46.03
51031;BME280;37058;41.442;23.240;2022-07-06T10:13:10;100131.00;;;30.92;46.06
51031;BME280;37058;41.442;23.240;2022-07-06T10:15:39;100128.22;;;30.99;46.76
51031;BME280;37058;41.442;23.240;2022-07-06T10:18:08;100131.03;;;30.99;45.70
51031;BME280;37058;41.442;23.240;2022-07-06T10:20:37;100129.44;;;31.01;45.18
51031;BME280;37058;41.442;23.240;2022-07-06T10:23:06;100112.91;;;30.96;40.34
51031;BME280;37058;41.442;23.240;2022-07-06T10:25:34;100114.09;;;30.92;41.83
51031;BME280;37058;41.442;23.240;2022-07-06T10:28:01;100095.97;;;30.89;42.63
51031;BME280;37058;41.442;23.240;2022-07-06T10:30:28;100108.88;;;30.90;45.92
51031;BME280;37058;41.442;23.240;2022-07-06T10:32:57;100109.28;;;30.96;45.20
51031;BME280;37058;41.442;23.240;2022-07-06T10:35:25;100096.44;;;31.02;45.13
51031;BME280;37058;41.442;23.240;2022-07-06T10:38:08;100106.09;;;31.08;44.84
51031;BME280;37058;41.442;23.240;2022-07-06T10:40:39;100100.84;;;31.14;43.29
51031;BME280;37058;41.442;23.240;2022-07-06T10:43:36;100100.88;;;31.17;43.41
51031;BME280;37058;41.442;23.240;2022-07-06T10:46:16;100096.03;;;31.21;43.69
51031;BME280;37058;41.442;23.240;2022-07-06T10:48:47;100104.09;;;31.26;43.89
51031;BME280;37058;41.442;23.240;2022-07-06T10:51:34;100102.91;;;31.31;44.72
51031;BME280;37058;41.442;23.240;2022-07-06T10:54:06;100095.63;;;31.37;43.95
51031;BME280;37058;41.442;23.240;2022-07-06T10:56:39;100100.47;;;31.37;44.20
51031;BME280;37058;41.442;23.240;2022-07-06T10:59:22;100096.47;;;31.38;45.06
51031;BME280;37058;41.442;23.240;2022-07-06T11:04:48;100100.88;;;31.21;42.18
51031;BME280;37058;41.442;23.240;2022-07-06T11:07:17;100080.31;;;31.06;41.11
51031;BME280;37058;41.442;23.240;2022-07-06T11:09:59;100082.31;;;31.05;40.90
51031;BME280;37058;41.442;23.240;2022-07-06T11:12:26;100084.34;;;31.12;42.23
51031;BME280;37058;41.442;23.240;2022-07-06T11:14:52;100083.56;;;31.15;41.23
51031;BME280;37058;41.442;23.240;2022-07-06T11:17:20;100084.34;;;31.16;40.22
51031;BME280;37058;41.442;23.240;2022-07-06T11:20:08;100075.09;;;31.15;40.50
51031;BME280;37058;41.442;23.240;2022-07-06T11:22:37;100070.25;;;31.19;40.44
51031;BME280;37058;41.442;23.240;2022-07-06T11:25:06;100079.53;;;31.20;41.31
51031;BME280;37058;41.442;23.240;2022-07-06T11:27:34;100077.09;;;31.22;40.26
51031;BME280;37058;41.442;23.240;2022-07-06T11:30:01;100065.41;;;31.23;39.99
51031;BME280;37058;41.442;23.240;2022-07-06T11:32:27;100052.53;;;31.22;40.80
51031;BME280;37058;41.442;23.240;2022-07-06T11:34:53;100055.34;;;31.33;41.26
51031;BME280;37058;41.442;23.240;2022-07-06T11:37:19;100063.44;;;31.42;42.95
51031;BME280;37058;41.442;23.240;2022-07-06T11:39:47;100055.38;;;31.51;43.59
51031;BME280;37058;41.442;23.240;2022-07-06T11:42:16;100057.78;;;31.56;43.36
51031;BME280;37058;41.442;23.240;2022-07-06T11:44:44;100049.72;;;31.65;42.81
51031;BME280;37058;41.442;23.240;2022-07-06T11:47:11;100046.50;;;31.70;44.12
51031;BME280;37058;41.442;23.240;2022-07-06T11:49:40;100044.84;;;31.77;43.65
51031;BME280;37058;41.442;23.240;2022-07-06T11:52:13;100047.25;;;31.82;43.39
51031;BME280;37058;41.442;23.240;2022-07-06T11:54:42;100035.16;;;31.85;43.80
51031;BME280;37058;41.442;23.240;2022-07-06T11:57:11;100008.16;;;31.84;45.04
51031;BME280;37058;41.442;23.240;2022-07-06T11:59:40;100021.09;;;31.70;45.20
51031;BME280;37058;41.442;23.240;2022-07-06T12:02:14;100017.84;;;31.72;43.26
51031;BME280;37058;41.442;23.240;2022-07-06T12:04:45;100015.81;;;31.72;43.82
51031;BME280;37058;41.442;23.240;2022-07-06T12:07:14;100015.00;;;31.79;43.81
51031;BME280;37058;41.442;23.240;2022-07-06T12:09:43;100008.53;;;31.82;39.91
51031;BME280;37058;41.442;23.240;2022-07-06T12:12:10;100008.53;;;31.82;38.28
51031;BME280;37058;41.442;23.240;2022-07-06T12:14:39;99998.03;;;31.83;38.90
51031;BME280;37058;41.442;23.240;2022-07-06T12:17:13;99983.94;;;31.86;39.15
51031;BME280;37058;41.442;23.240;2022-07-06T12:19:41;99988.38;;;31.84;37.30
51031;BME280;37058;41.442;23.240;2022-07-06T12:22:08;99982.72;;;31.84;37.18
51031;BME280;37058;41.442;23.240;2022-07-06T12:24:36;99989.19;;;31.81;37.81
51031;BME280;37058;41.442;23.240;2022-07-06T12:27:33;99988.78;;;31.82;38.60
51031;BME280;37058;41.442;23.240;2022-07-06T12:30:10;99991.97;;;31.88;36.89
51031;BME280;37058;41.442;23.240;2022-07-06T12:32:36;99982.31;;;31.82;37.60
51031;BME280;37058;41.442;23.240;2022-07-06T12:35:08;99982.31;;;31.82;37.73
51031;BME280;37058;41.442;23.240;2022-07-06T12:37:35;99968.63;;;31.77;37.63
51031;BME280;37058;41.442;23.240;2022-07-06T12:40:02;99969.03;;;31.75;37.29
51031;BME280;37058;41.442;23.240;2022-07-06T12:42:30;99964.59;;;31.74;38.19
51031;BME280;37058;41.442;23.240;2022-07-06T12:44:56;99962.19;;;31.72;37.11